createdAt,value
2022-09-09T03:49:55.541Z,13.60
2022-09-09T03:52:25.858Z,13.60
2022-09-09T03:54:52.789Z,13.70
2022-09-09T03:57:20.063Z,13.80
2022-09-09T04:02:12.573Z,14.00
2022-09-09T04:04:39.207Z,14.10
2022-09-09T04:07:07.966Z,14.20
2022-09-09T04:09:34.923Z,14.20
2022-09-09T04:12:01.782Z,14.20
2022-09-09T04:14:29.756Z,14.20
2022-09-09T04:16:58.385Z,14.20
2022-09-09T04:19:25.190Z,14.20
2022-09-09T04:21:52.580Z,14.30
2022-09-09T04:24:19.921Z,14.30
2022-09-09T04:26:47.715Z,14.30
2022-09-09T04:29:14.348Z,14.40
2022-09-09T04:31:43.003Z,14.40
2022-09-09T04:34:10.428Z,14.40
2022-09-09T04:36:37.433Z,14.40
2022-09-09T04:39:04.241Z,14.50
2022-09-09T04:41:32.351Z,14.40
2022-09-09T04:43:59.874Z,14.30
2022-09-09T04:46:26.938Z,14.30
2022-09-09T04:48:54.628Z,14.20
2022-09-09T04:51:21.598Z,14.20
2022-09-09T04:53:49.519Z,14.20
2022-09-09T04:56:18.153Z,14.30
2022-09-09T04:58:45.311Z,14.30
2022-09-09T05:01:21.018Z,14.30
2022-09-09T05:03:48.650Z,14.30
2022-09-09T05:06:18.293Z,14.30
2022-09-09T05:08:45.861Z,14.20
2022-09-09T05:11:21.710Z,14.20
2022-09-09T05:13:48.640Z,14.10
2022-09-09T05:16:16.050Z,14.00
2022-09-09T05:18:44.036Z,14.00
2022-09-09T05:21:11.837Z,13.90
2022-09-09T05:23:38.662Z,14.10
2022-09-09T05:26:06.010Z,14.10
2022-09-09T05:28:34.710Z,14.00
2022-09-09T05:31:05.703Z,14.00
2022-09-09T05:33:34.169Z,14.10
2022-09-09T05:36:06.150Z,14.20
2022-09-09T05:38:34.017Z,14.30
2022-09-09T05:41:01.211Z,14.30
2022-09-09T05:43:28.163Z,14.30
2022-09-09T05:46:08.988Z,14.30
2022-09-09T05:48:38.332Z,14.40
2022-09-09T05:51:07.864Z,14.40
2022-09-09T05:53:37.822Z,14.50
2022-09-09T05:56:11.616Z,14.60
2022-09-09T05:58:39.538Z,14.80
2022-09-09T06:01:18.418Z,14.90
2022-09-09T06:03:46.382Z,15.00
2022-09-09T06:06:18.597Z,15.10
2022-09-09T06:08:46.287Z,15.10
2022-09-09T06:11:33.611Z,15.20
2022-09-09T06:14:00.682Z,15.20
2022-09-09T06:16:29.291Z,15.30
2022-09-09T06:18:57.541Z,15.40
2022-09-09T06:21:27.364Z,15.50
2022-09-09T06:23:57.776Z,15.50
2022-09-09T06:26:38.033Z,15.60
2022-09-09T06:29:05.778Z,15.60
2022-09-09T06:31:37.849Z,15.60
2022-09-09T06:34:09.345Z,15.80
2022-09-09T06:36:39.015Z,15.80
2022-09-09T06:39:10.847Z,15.70
2022-09-09T06:41:39.810Z,15.60
2022-09-09T06:44:06.569Z,15.70
2022-09-09T06:46:34.287Z,15.70
2022-09-09T06:49:01.574Z,15.70
2022-09-09T06:51:31.183Z,15.80
2022-09-09T06:54:00.287Z,15.90
2022-09-09T06:56:32.785Z,16.10
2022-09-09T06:59:03.471Z,16.10
2022-09-09T07:01:35.197Z,16.10
2022-09-09T07:04:03.133Z,16.00
2022-09-09T07:06:32.747Z,16.00
2022-09-09T07:09:09.921Z,16.30
2022-09-09T07:11:49.847Z,16.50
2022-09-09T07:14:16.845Z,16.60
2022-09-09T07:16:44.532Z,16.60
2022-09-09T07:19:12.631Z,16.70
2022-09-09T07:21:40.646Z,16.80
2022-09-09T07:24:11.179Z,16.80
2022-09-09T07:26:39.852Z,17.00
2022-09-09T07:29:06.789Z,17.10
2022-09-09T07:31:36.665Z,17.20
2022-09-09T07:34:05.224Z,17.30
2022-09-09T07:36:37.535Z,17.30
2022-09-09T07:39:07.287Z,17.40
2022-09-09T07:41:41.900Z,17.50
2022-09-09T07:44:11.843Z,17.60
2022-09-09T07:46:42.450Z,17.70
2022-09-09T07:49:10.866Z,17.80
2022-09-09T07:51:40.060Z,17.90
2022-09-09T07:54:10.320Z,17.90
2022-09-09T07:56:39.992Z,17.90
2022-09-09T07:59:07.608Z,17.90
2022-09-09T08:01:40.374Z,17.90
2022-09-09T08:04:09.981Z,17.90
2022-09-09T08:06:41.168Z,18.30
2022-09-09T08:09:09.628Z,18.50
2022-09-09T08:11:39.227Z,18.70
2022-09-09T08:14:08.575Z,19.60
2022-09-09T08:16:38.174Z,20.30
2022-09-09T08:19:06.484Z,20.60
2022-09-09T08:21:34.970Z,21.00
2022-09-09T08:24:02.721Z,21.80
2022-09-09T08:26:32.861Z,22.90
2022-09-09T08:29:02.201Z,23.40
2022-09-09T08:31:32.350Z,24.70
2022-09-09T08:34:00.429Z,25.50
2022-09-09T08:36:30.241Z,26.40
2022-09-09T08:38:58.731Z,27.50
2022-09-09T08:41:55.850Z,27.70
2022-09-09T08:44:56.528Z,27.00
2022-09-09T08:47:58.061Z,25.50
2022-09-09T08:50:36.265Z,25.40
2022-09-09T08:53:17.503Z,25.70
2022-09-09T08:55:52.210Z,26.40
2022-09-09T08:58:26.030Z,27.90
2022-09-09T09:00:55.477Z,29.10
2022-09-09T09:03:37.411Z,30.00
2022-09-09T09:06:28.108Z,29.80
2022-09-09T09:09:00.541Z,28.60
2022-09-09T09:11:27.230Z,28.60
2022-09-09T09:14:03.802Z,27.60
2022-09-09T09:16:56.870Z,27.60
2022-09-09T09:19:25.893Z,27.80
2022-09-09T09:22:05.157Z,27.10
2022-09-09T09:24:52.186Z,26.50
2022-09-09T09:27:42.014Z,27.10
2022-09-09T09:30:30.786Z,25.90
2022-09-09T09:33:03.525Z,25.50
2022-09-09T09:35:30.218Z,25.80
2022-09-09T09:40:59.002Z,24.30
2022-09-09T09:43:32.416Z,23.70
2022-09-09T09:46:18.005Z,24.00
2022-09-09T09:48:47.235Z,25.60
2022-09-09T09:51:24.572Z,27.50
2022-09-09T09:53:53.754Z,28.50
2022-09-09T09:56:30.032Z,28.60
2022-09-09T09:58:57.523Z,29.90
2022-09-09T10:01:25.525Z,28.90
2022-09-09T10:03:53.742Z,30.00
2022-09-09T10:06:34.317Z,31.20
2022-09-09T10:09:03.781Z,30.00
2022-09-09T10:11:53.609Z,30.10
2022-09-09T10:14:49.455Z,31.80
2022-09-09T10:17:23.010Z,32.30
2022-09-09T10:20:21.755Z,30.90
2022-09-09T10:23:20.253Z,31.40
2022-09-09T10:26:09.410Z,31.30
2022-09-09T10:28:51.129Z,31.80
2022-09-09T10:31:18.434Z,31.30
2022-09-09T10:34:38.743Z,30.50
2022-09-09T10:37:23.549Z,28.40
2022-09-09T10:39:59.366Z,27.10
2022-09-09T10:42:32.065Z,26.00
2022-09-09T10:45:19.216Z,25.00
2022-09-09T10:47:45.936Z,24.40
2022-09-09T10:50:21.993Z,24.10
2022-09-09T10:53:09.169Z,23.30
2022-09-09T10:55:52.050Z,22.60
2022-09-09T10:58:26.410Z,22.30
2022-09-09T11:01:01.163Z,21.80
2022-09-09T11:03:30.506Z,21.40
2022-09-09T11:06:10.128Z,21.20
2022-09-09T11:08:40.148Z,21.20
2022-09-09T11:11:35.654Z,21.40
2022-09-09T11:14:30.537Z,21.70
2022-09-09T11:17:07.427Z,21.40
2022-09-09T11:19:52.390Z,21.20
2022-09-09T11:22:44.557Z,21.20
2022-09-09T11:25:24.141Z,21.50
2022-09-09T11:27:50.755Z,22.70
2022-09-09T11:30:44.538Z,24.20
2022-09-09T11:33:42.782Z,24.10
2022-09-09T11:36:27.861Z,24.30
2022-09-09T11:39:06.499Z,25.10
2022-09-09T11:41:38.374Z,26.10
2022-09-09T11:44:21.428Z,26.80
2022-09-09T11:46:52.078Z,27.20
2022-09-09T11:49:46.616Z,27.40
2022-09-09T11:52:47.247Z,27.80
2022-09-09T11:55:29.814Z,27.60
2022-09-09T11:58:11.997Z,27.30
2022-09-09T12:00:49.905Z,26.70
2022-09-09T12:03:50.639Z,26.00
2022-09-09T12:06:32.160Z,25.80
2022-09-09T12:09:28.432Z,25.10
2022-09-09T12:12:23.342Z,25.00
2022-09-09T12:15:07.679Z,25.20
2022-09-09T12:17:49.227Z,25.00
2022-09-09T12:20:32.435Z,24.20
2022-09-09T12:23:31.917Z,24.00
2022-09-09T12:26:14.138Z,23.60
2022-09-09T12:29:06.749Z,24.00
2022-09-09T12:32:06.078Z,24.60
2022-09-09T12:34:42.192Z,24.70
2022-09-09T12:37:14.974Z,24.70
2022-09-09T12:40:00.401Z,24.50
2022-09-09T12:42:28.334Z,24.30
2022-09-09T12:45:04.101Z,24.10
2022-09-09T12:47:36.774Z,24.40
2022-09-09T12:50:03.914Z,24.40
2022-09-09T12:52:36.672Z,24.40
2022-09-09T12:55:06.008Z,24.10
2022-09-09T12:57:39.738Z,23.70
2022-09-09T13:00:16.764Z,23.20
2022-09-09T13:02:53.612Z,22.90
2022-09-09T13:05:24.210Z,22.80
2022-09-09T13:07:51.652Z,22.70
2022-09-09T13:10:36.985Z,22.50
2022-09-09T13:13:18.808Z,22.80
2022-09-09T13:15:54.033Z,23.30
2022-09-09T13:18:28.551Z,23.80
2022-09-09T13:20:57.222Z,24.30
2022-09-09T13:23:33.863Z,24.50
2022-09-09T13:26:03.273Z,24.30
2022-09-09T13:28:34.342Z,24.10
2022-09-09T13:31:04.164Z,24.20
2022-09-09T13:33:39.254Z,24.60
2022-09-09T13:36:08.839Z,25.20
2022-09-09T13:38:41.805Z,25.40
2022-09-09T13:41:11.539Z,25.70
2022-09-09T13:43:43.926Z,25.60
2022-09-09T13:46:42.075Z,25.30
2022-09-09T13:49:12.171Z,25.00
2022-09-09T13:51:47.615Z,24.90
2022-09-09T13:54:16.620Z,24.70
2022-09-09T13:56:44.288Z,24.80
2022-09-09T13:59:13.891Z,25.00
2022-09-09T14:01:41.914Z,24.60
2022-09-09T14:04:09.831Z,24.20
2022-09-09T14:06:40.324Z,23.90
2022-09-09T14:09:08.677Z,24.00
2022-09-09T14:11:35.393Z,24.50
2022-09-09T14:14:02.073Z,24.80
2022-09-09T14:16:29.214Z,24.50
2022-09-09T14:19:00.142Z,23.90
2022-09-09T14:21:28.375Z,23.70
2022-09-09T14:23:55.081Z,23.60
2022-09-09T14:26:22.753Z,23.10
2022-09-09T14:28:57.710Z,22.80
2022-09-09T14:31:25.935Z,23.00
2022-09-09T14:33:53.616Z,23.20
2022-09-09T14:36:20.782Z,23.10
2022-09-09T14:38:47.609Z,22.70
2022-09-09T14:41:19.607Z,22.60
2022-09-09T14:43:47.145Z,22.50
2022-09-09T14:46:18.228Z,22.40
2022-09-09T14:48:46.123Z,22.30
2022-09-09T14:51:24.379Z,22.20
2022-09-09T14:53:56.142Z,22.10
2022-09-09T14:56:25.478Z,21.90
2022-09-09T14:58:54.770Z,21.80
2022-09-09T15:01:21.736Z,21.50
2022-09-09T15:03:53.766Z,21.40
2022-09-09T15:06:22.260Z,21.30
2022-09-09T15:08:50.685Z,21.20
2022-09-09T15:11:17.484Z,21.20
2022-09-09T15:13:45.398Z,21.40
2022-09-09T15:16:15.848Z,21.70
2022-09-09T15:18:47.047Z,22.20
2022-09-09T15:21:16.458Z,22.70
2022-09-09T15:23:44.058Z,23.00
2022-09-09T15:26:11.526Z,23.10
2022-09-09T15:28:39.383Z,23.10
2022-09-09T15:31:11.011Z,23.20
2022-09-09T15:33:38.591Z,23.30
2022-09-09T15:36:38.740Z,23.40
2022-09-09T15:39:08.093Z,23.30
2022-09-09T15:41:34.898Z,23.20
2022-09-09T15:44:01.924Z,23.10
2022-09-09T15:46:40.674Z,23.10
2022-09-09T15:49:19.316Z,23.10
2022-09-09T15:51:48.833Z,23.20
2022-09-09T15:54:18.974Z,23.30
2022-09-09T15:56:47.497Z,23.40
2022-09-09T15:59:15.679Z,23.30
2022-09-09T16:01:43.127Z,23.30
2022-09-09T16:04:10.639Z,23.20
2022-09-09T16:06:37.773Z,23.30
2022-09-09T16:09:07.432Z,23.20
2022-09-09T16:11:38.630Z,23.20
2022-09-09T16:14:07.310Z,23.20
2022-09-09T16:16:36.089Z,23.20
2022-09-09T16:19:08.497Z,23.10
2022-09-09T16:21:38.679Z,23.00
2022-09-09T16:24:07.703Z,23.00
2022-09-09T16:26:37.409Z,23.00
2022-09-09T16:29:05.110Z,22.90
2022-09-09T16:31:33.257Z,23.00
2022-09-09T16:34:00.029Z,22.80
2022-09-09T16:36:29.195Z,22.70
2022-09-09T16:39:00.322Z,22.60
2022-09-09T16:41:28.817Z,22.30
2022-09-09T16:43:56.519Z,22.10
2022-09-09T16:46:25.150Z,21.90
2022-09-09T16:48:52.729Z,21.80
2022-09-09T16:51:28.135Z,21.70
2022-09-09T16:53:56.237Z,21.50
2022-09-09T16:56:27.708Z,21.40
2022-09-09T16:58:56.644Z,21.30
2022-09-09T17:01:25.109Z,21.30
2022-09-09T17:04:01.421Z,21.20
2022-09-09T17:06:30.142Z,21.00
2022-09-09T17:09:02.467Z,20.80
2022-09-09T17:11:30.476Z,20.70
2022-09-09T17:13:59.043Z,20.40
2022-09-09T17:16:30.893Z,20.30
2022-09-09T17:18:59.457Z,20.30
2022-09-09T17:21:27.554Z,20.30
2022-09-09T17:23:55.406Z,20.10
2022-09-09T17:26:24.602Z,20.00
2022-09-09T17:28:52.619Z,19.90
2022-09-09T17:31:21.911Z,19.80
2022-09-09T17:33:53.466Z,19.80
2022-09-09T17:36:23.162Z,19.90
2022-09-09T17:38:50.538Z,19.90
2022-09-09T17:41:26.005Z,19.80
2022-09-09T17:43:53.481Z,19.60
2022-09-09T17:46:22.487Z,19.60
2022-09-09T17:48:51.328Z,19.40
2022-09-09T17:51:21.223Z,19.40
2022-09-09T17:53:50.022Z,19.40
2022-09-09T17:56:23.594Z,19.30
2022-09-09T17:58:50.898Z,19.30
2022-09-09T18:01:29.617Z,19.20
2022-09-09T18:03:57.472Z,19.10
2022-09-09T18:06:30.690Z,19.00
2022-09-09T18:08:59.590Z,19.10
2022-09-09T18:11:28.931Z,19.10
2022-09-09T18:14:01.430Z,19.10
2022-09-09T18:16:30.979Z,19.00
2022-09-09T18:18:58.608Z,19.00
2022-09-09T18:21:27.540Z,19.00
2022-09-09T18:23:54.272Z,18.90
2022-09-09T18:26:27.496Z,18.90
2022-09-09T18:28:56.690Z,18.80
2022-09-09T18:31:25.245Z,18.70
2022-09-09T18:33:53.488Z,18.70
2022-09-09T18:36:32.474Z,18.60
2022-09-09T18:39:01.289Z,18.60
2022-09-09T18:41:37.179Z,18.60
2022-09-09T18:44:11.088Z,18.60
2022-09-09T18:46:39.776Z,18.50
2022-09-09T18:49:06.862Z,18.30
2022-09-09T18:51:35.352Z,18.30
2022-09-09T18:54:09.326Z,18.40
2022-09-09T18:56:36.706Z,18.20
2022-09-09T18:59:06.498Z,18.10
2022-09-09T19:01:35.691Z,18.10
2022-09-09T19:04:04.093Z,18.20
2022-09-09T19:06:32.638Z,18.20
2022-09-09T19:09:03.185Z,18.10
2022-09-09T19:11:32.324Z,18.00
2022-09-09T19:14:01.797Z,17.90
2022-09-09T19:16:31.258Z,17.90
2022-09-09T19:19:04.330Z,17.90
2022-09-09T19:21:42.158Z,17.80
2022-09-09T19:24:31.372Z,17.80
2022-09-09T19:27:01.837Z,17.80
2022-09-09T19:29:31.893Z,17.60
2022-09-09T19:34:48.457Z,17.40
2022-09-09T19:37:18.133Z,17.30
2022-09-09T19:39:46.033Z,17.30
2022-09-09T19:42:12.790Z,17.30
2022-09-09T19:44:39.710Z,17.30
2022-09-09T19:47:07.193Z,17.30
2022-09-09T19:49:35.169Z,17.30
2022-09-09T19:52:02.063Z,17.20
2022-09-09T19:54:28.805Z,17.20
2022-09-09T19:56:55.486Z,17.10
2022-09-09T19:59:22.521Z,17.10
2022-09-09T20:01:49.310Z,17.10
2022-09-09T20:04:17.714Z,17.00
2022-09-09T20:06:45.254Z,17.00
2022-09-09T20:09:16.922Z,16.90
2022-09-09T20:11:45.269Z,16.90
2022-09-09T20:14:13.285Z,16.80
2022-09-09T20:16:40.637Z,16.80
2022-09-09T20:19:11.009Z,16.80
2022-09-09T20:21:45.174Z,16.80
2022-09-09T20:24:15.325Z,16.70
2022-09-09T20:26:42.126Z,16.70
2022-09-09T20:29:15.743Z,16.60
2022-09-09T20:31:43.554Z,16.60
2022-09-09T20:34:12.897Z,16.60
2022-09-09T20:36:41.258Z,16.60
2022-09-09T20:39:22.375Z,16.60
2022-09-09T20:41:50.214Z,16.60
2022-09-09T20:44:19.957Z,16.60
2022-09-09T20:46:49.951Z,16.60
2022-09-09T20:49:22.404Z,16.60
2022-09-09T20:51:50.430Z,16.60
2022-09-09T20:54:23.394Z,16.60
2022-09-09T20:56:51.651Z,16.60
2022-09-09T20:59:21.222Z,16.60
2022-09-09T21:01:48.629Z,16.70
2022-09-09T21:04:17.483Z,16.60
2022-09-09T21:06:44.962Z,16.50
2022-09-09T21:09:11.702Z,16.30
2022-09-09T21:11:38.611Z,16.20
2022-09-09T21:14:05.733Z,16.00
2022-09-09T21:16:32.654Z,15.90
2022-09-09T21:18:59.502Z,15.70
2022-09-09T21:21:26.690Z,15.60
2022-09-09T21:23:56.873Z,15.50
2022-09-09T21:26:24.266Z,15.50
2022-09-09T21:28:51.054Z,15.60
2022-09-09T21:31:18.972Z,15.60
2022-09-09T21:33:46.207Z,15.60
2022-09-09T21:36:14.276Z,15.60
2022-09-09T21:38:41.938Z,15.50
2022-09-09T21:41:12.859Z,15.40
2022-09-09T21:43:41.957Z,15.30
2022-09-09T21:46:14.309Z,15.30
2022-09-09T21:48:41.175Z,15.30
2022-09-09T21:51:10.302Z,15.30
2022-09-09T21:53:38.575Z,15.20
2022-09-09T21:56:07.927Z,15.30
2022-09-09T21:58:35.534Z,15.20
2022-09-09T22:01:08.234Z,15.20
2022-09-09T22:03:38.458Z,15.20
2022-09-09T22:06:10.199Z,15.30
2022-09-09T22:08:37.706Z,15.30
2022-09-09T22:11:16.596Z,15.30
2022-09-09T22:13:46.049Z,15.30
2022-09-09T22:16:15.251Z,15.20
2022-09-09T22:18:42.131Z,15.20
2022-09-09T22:21:14.720Z,15.10
2022-09-09T22:23:41.381Z,15.10
2022-09-09T22:26:08.399Z,15.00
2022-09-09T22:28:36.209Z,14.90
2022-09-09T22:31:02.970Z,14.90
2022-09-09T22:33:29.886Z,14.90
2022-09-09T22:35:56.943Z,14.90
2022-09-09T22:38:23.810Z,14.90
2022-09-09T22:40:50.761Z,14.70
2022-09-09T22:43:21.074Z,14.60
2022-09-09T22:45:48.857Z,14.50
2022-09-09T22:48:16.173Z,14.40
2022-09-09T22:50:43.115Z,14.40
2022-09-09T22:53:13.595Z,14.40
2022-09-09T22:55:40.729Z,14.30
2022-09-09T22:58:07.605Z,14.30
2022-09-09T23:00:34.369Z,14.30
2022-09-09T23:03:01.122Z,14.30
2022-09-09T23:05:27.859Z,14.30
2022-09-09T23:07:58.336Z,14.30
2022-09-09T23:10:27.049Z,14.30
2022-09-09T23:12:54.104Z,14.30
2022-09-09T23:15:20.929Z,14.30
2022-09-09T23:17:47.638Z,14.30
2022-09-09T23:20:14.305Z,14.30
2022-09-09T23:22:40.952Z,14.20
2022-09-09T23:25:07.990Z,14.10
2022-09-09T23:27:37.277Z,14.00
